Time;durP1;ratioP1;P1;durP2;ratioP2;P2;SDS_P1;SDS_P2;PMS_P1;PMS_P2;Temp;Humidity;BMP_temperature;BMP_pressure;BME280_temperature;BME280_humidity;BME280_pressure;Samples;Min_cycle;Max_cycle;Signal;HPM_P1;HPM_P2
2023/11/13 00:00:14;;;;;;;4.18;2.50;;;;;;;;;;472255;28;874;-71
2023/11/13 00:00:30;;;;;;;4.53;2.80;;;;;;;;;;473326;28;1013;-72
2023/11/13 00:00:45;;;;;;;4.55;2.70;;;;;;;;;;472850;28;958;-71
2023/11/13 00:01:01;;;;;;;3.53;2.53;;;;;;;;;;470801;28;930;-71
2023/11/13 00:01:16;;;;;;;4.00;3.03;;;;;;;;;;468734;28;1132;-71
2023/11/13 00:01:31;;;;;;;6.90;4.28;;;;;;;;;;469848;28;946;-72
2023/11/13 00:01:47;;;;;;;8.07;4.87;;;;;;;;;;471171;28;1244;-72
2023/11/13 00:02:03;;;;;;;7.97;5.07;;;;;;;;;;470042;28;1142;-71
2023/11/13 00:02:19;;;;;;;9.00;5.90;;;;;;;;;;470951;28;1110;-72
2023/11/13 00:02:34;;;;;;;8.87;6.07;;;;;;;;;;471039;28;1110;-72
2023/11/13 00:02:49;;;;;;;8.70;6.05;;;;;;;;;;469992;28;878;-71
2023/11/13 00:03:07;;;;;;;10.53;7.03;;;;;;;;;;473246;28;1068;-72
2023/11/13 00:03:22;;;;;;;11.35;7.70;;;;;;;;;;472314;28;1099;-72
2023/11/13 00:03:38;;;;;;;10.48;7.07;;;;;;;;;;471510;28;1149;-72
2023/11/13 00:03:53;;;;;;;8.40;5.77;;;;;;;;;;468654;28;1232;-72
2023/11/13 00:04:08;;;;;;;6.90;4.57;;;;;;;;;;466674;28;1017;-72
2023/11/13 00:04:23;;;;;;;5.85;3.53;;;;;;;;;;467380;28;941;-72
2023/11/13 00:04:39;;;;;;;6.33;3.73;;;;;;;;;;465329;28;1120;-71
2023/11/13 00:04:55;;;;;;;6.72;4.43;;;;;;;;;;467300;28;1182;-72
2023/11/13 00:05:11;;;;;;;5.70;4.22;;;;;;;;;;466950;28;1539;-72
2023/11/13 00:05:26;;;;;;;5.70;3.90;;;;;;;;;;466818;28;1208;-72
2023/11/13 00:05:41;;;;;;;6.45;4.15;;;;;;;;;;466402;28;859;-72
2023/11/13 00:05:57;;;;;;;5.90;4.03;;;;;;;;;;467266;28;1042;-72
2023/11/13 00:06:13;;;;;;;4.90;3.43;;;;;;;;;;464927;28;1174;-72
2023/11/13 00:06:28;;;;;;;5.10;3.08;;;;;;;;;;467747;28;871;-72
2023/11/13 00:06:44;;;;;;;4.97;2.93;;;;;;;;;;468340;28;1064;-72
2023/11/13 00:06:59;;;;;;;5.00;3.03;;;;;;;;;;466708;28;1149;-71
2023/11/13 00:07:15;;;;;;;4.65;2.95;;;;;;;;;;469773;28;1316;-71
2023/11/13 00:07:30;;;;;;;4.13;2.90;;;;;;;;;;470740;28;1035;-71
2023/11/13 00:07:45;;;;;;;4.65;3.35;;;;;;;;;;470886;28;937;-72
2023/11/13 00:08:00;;;;;;;7.30;4.80;;;;;;;;;;470850;28;895;-71
2023/11/13 00:08:16;;;;;;;9.00;6.03;;;;;;;;;;469997;28;1217;-72
2023/11/13 00:08:32;;;;;;;9.55;6.50;;;;;;;;;;469158;28;948;-71
2023/11/13 00:08:47;;;;;;;16.97;10.23;;;;;;;;;;469636;28;1060;-71
2023/11/13 00:09:04;;;;;;;23.40;14.25;;;;;;;;;;469598;28;1235;-72
2023/11/13 00:09:19;;;;;;;23.50;15.02;;;;;;;;;;469407;28;1261;-72
2023/11/13 00:09:36;;;;;;;21.48;13.95;;;;;;;;;;470597;28;877;-71
2023/11/13 00:09:51;;;;;;;18.50;12.10;;;;;;;;;;469689;28;934;-72
2023/11/13 00:10:08;;;;;;;16.05;10.23;;;;;;;;;;468545;28;1315;-72
2023/11/13 00:10:23;;;;;;;9.75;6.03;;;;;;;;;;469579;28;1322;-72
2023/11/13 00:10:39;;;;;;;5.38;3.53;;;;;;;;;;470188;28;926;-72
2023/11/13 00:10:54;;;;;;;5.57;3.43;;;;;;;;;;470181;28;878;-72
2023/11/13 00:11:10;;;;;;;5.10;3.00;;;;;;;;;;470267;28;1191;-72
2023/11/13 00:11:25;;;;;;;4.65;3.00;;;;;;;;;;469392;28;887;-71
2023/11/13 00:11:40;;;;;;;4.83;3.10;;;;;;;;;;469763;28;1351;-71
2023/11/13 00:11:56;;;;;;;5.40;3.00;;;;;;;;;;470705;28;941;-72
2023/11/13 00:12:11;;;;;;;5.40;3.10;;;;;;;;;;469513;28;1053;-72
2023/11/13 00:12:27;;;;;;;4.13;2.90;;;;;;;;;;472156;28;866;-72
2023/11/13 00:12:42;;;;;;;3.93;2.53;;;;;;;;;;471790;28;2016;-72
2023/11/13 00:12:57;;;;;;;4.25;2.55;;;;;;;;;;472573;28;918;-72
2023/11/13 00:13:13;;;;;;;4.57;2.60;;;;;;;;;;470380;28;1197;-71
2023/11/13 00:13:28;;;;;;;4.75;2.60;;;;;;;;;;471788;28;874;-72
2023/11/13 00:13:44;;;;;;;5.27;2.70;;;;;;;;;;470040;28;854;-72
2023/11/13 00:13:59;;;;;;;4.60;2.63;;;;;;;;;;471251;28;1049;-71
2023/11/13 00:14:15;;;;;;;3.23;2.50;;;;;;;;;;472624;28;1355;-72
2023/11/13 00:14:30;;;;;;;3.30;2.40;;;;;;;;;;472162;28;1313;-71
2023/11/13 00:14:45;;;;;;;4.25;2.47;;;;;;;;;;470502;28;1272;-72
2023/11/13 00:15:01;;;;;;;4.40;2.50;;;;;;;;;;467547;28;1202;-72
2023/11/13 00:15:17;;;;;;;3.70;2.50;;;;;;;;;;468869;28;1085;-72
2023/11/13 00:15:32;;;;;;;3.33;2.45;;;;;;;;;;469111;28;1128;-71
2023/11/13 00:15:48;;;;;;;3.60;2.40;;;;;;;;;;468881;28;1126;-71
2023/11/13 00:16:04;;;;;;;3.92;2.53;;;;;;;;;;468777;28;1342;-72
2023/11/13 00:16:19;;;;;;;3.80;2.70;;;;;;;;;;470103;28;946;-72
2023/11/13 00:16:34;;;;;;;5.07;2.67;;;;;;;;;;469379;28;940;-72
2023/11/13 00:16:50;;;;;;;4.67;2.50;;;;;;;;;;468980;28;1216;-71
2023/11/13 00:17:05;;;;;;;3.80;2.50;;;;;;;;;;467140;28;1207;-72
2023/11/13 00:17:20;;;;;;;3.80;2.47;;;;;;;;;;469562;28;1210;-72
2023/11/13 00:17:36;;;;;;;3.70;2.40;;;;;;;;;;470842;28;996;-71
2023/11/13 00:17:52;;;;;;;4.27;2.70;;;;;;;;;;470630;28;1220;-71
2023/11/13 00:18:08;;;;;;;4.40;2.60;;;;;;;;;;469515;28;1034;-72
2023/11/13 00:18:25;;;;;;;3.85;2.40;;;;;;;;;;468614;28;988;-71
2023/11/13 00:18:42;;;;;;;3.80;2.38;;;;;;;;;;467845;28;910;-71
2023/11/13 00:18:57;;;;;;;3.70;2.40;;;;;;;;;;468855;28;936;-72
2023/11/13 00:19:12;;;;;;;4.37;2.53;;;;;;;;;;471366;28;929;-71
2023/11/13 00:19:27;;;;;;;4.73;2.60;;;;;;;;;;469300;28;1041;-71
2023/11/13 00:19:43;;;;;;;3.80;2.70;;;;;;;;;;469481;28;927;-71
2023/11/13 00:19:59;;;;;;;3.75;2.53;;;;;;;;;;471241;28;1129;-71
2023/11/13 00:20:14;;;;;;;3.93;2.47;;;;;;;;;;473208;28;933;-71
2023/11/13 00:20:31;;;;;;;3.70;2.60;;;;;;;;;;471007;28;1014;-70
2023/11/13 00:20:46;;;;;;;3.42;2.65;;;;;;;;;;470661;28;898;-71
2023/11/13 00:21:02;;;;;;;3.13;2.50;;;;;;;;;;469653;28;1242;-71
2023/11/13 00:21:17;;;;;;;3.85;2.65;;;;;;;;;;468610;28;930;-71
2023/11/13 00:21:33;;;;;;;4.50;2.70;;;;;;;;;;470057;28;936;-71
2023/11/13 00:21:49;;;;;;;3.78;2.50;;;;;;;;;;468654;28;1525;-71
2023/11/13 00:22:05;;;;;;;3.27;2.37;;;;;;;;;;469494;28;964;-72
2023/11/13 00:22:20;;;;;;;3.60;2.45;;;;;;;;;;470148;28;915;-71
2023/11/13 00:22:36;;;;;;;4.07;2.60;;;;;;;;;;470307;28;956;-72
2023/11/13 00:22:52;;;;;;;4.00;2.55;;;;;;;;;;471915;28;925;-71
2023/11/13 00:23:07;;;;;;;3.95;2.58;;;;;;;;;;471950;28;1077;-71
2023/11/13 00:23:23;;;;;;;3.93;2.60;;;;;;;;;;474568;27;1024;-72
2023/11/13 00:23:38;;;;;;;4.38;2.63;;;;;;;;;;473476;28;1281;-71
2023/11/13 00:23:53;;;;;;;4.37;2.50;;;;;;;;;;472316;28;935;-72
2023/11/13 00:24:09;;;;;;;3.87;2.40;;;;;;;;;;472300;28;1053;-71
2023/11/13 00:24:25;;;;;;;5.55;2.40;;;;;;;;;;471771;28;1042;-71
2023/11/13 00:24:41;;;;;;;5.70;2.50;;;;;;;;;;471965;28;1237;-71
2023/11/13 00:24:58;;;;;;;3.72;2.50;;;;;;;;;;471477;28;1035;-71
2023/11/13 00:25:13;;;;;;;3.78;2.35;;;;;;;;;;468789;28;1540;-71
2023/11/13 00:25:28;;;;;;;3.40;2.30;;;;;;;;;;470116;28;1246;-72
2023/11/13 00:25:44;;;;;;;3.20;2.35;;;;;;;;;;470953;28;1060;-71
2023/11/13 00:25:59;;;;;;;3.50;2.43;;;;;;;;;;468868;28;1061;-71
2023/11/13 00:26:15;;;;;;;3.60;2.40;;;;;;;;;;470224;28;1188;-72
2023/11/13 00:26:31;;;;;;;4.30;2.40;;;;;;;;;;468626;28;1148;-72
2023/11/13 00:26:46;;;;;;;3.90;2.30;;;;;;;;;;466587;28;1188;-71
2023/11/13 00:27:03;;;;;;;2.87;2.20;;;;;;;;;;467631;28;1419;-72
2023/11/13 00:27:19;;;;;;;3.75;2.40;;;;;;;;;;468955;28;1075;-71
2023/11/13 00:27:34;;;;;;;4.22;2.45;;;;;;;;;;467397;28;1886;-72
2023/11/13 00:27:49;;;;;;;4.40;2.40;;;;;;;;;;465521;28;1205;-72
2023/11/13 00:28:05;;;;;;;3.33;2.10;;;;;;;;;;467345;28;881;-71
2023/11/13 00:28:21;;;;;;;3.07;2.13;;;;;;;;;;466969;28;941;-71
2023/11/13 00:28:36;;;;;;;3.85;2.40;;;;;;;;;;466453;28;1289;-72
2023/11/13 00:28:52;;;;;;;3.77;2.40;;;;;;;;;;468861;28;969;-72
2023/11/13 00:29:07;;;;;;;3.47;2.30;;;;;;;;;;468963;28;1181;-71
2023/11/13 00:29:22;;;;;;;3.70;2.40;;;;;;;;;;468589;28;1163;-71
2023/11/13 00:29:38;;;;;;;3.60;2.30;;;;;;;;;;469119;28;1063;-71
2023/11/13 00:29:53;;;;;;;3.20;2.20;;;;;;;;;;471434;28;1370;-71
2023/11/13 00:30:10;;;;;;;3.27;2.20;;;;;;;;;;468504;28;1132;-71
2023/11/13 00:30:25;;;;;;;3.22;2.00;;;;;;;;;;469207;28;945;-71
2023/11/13 00:30:40;;;;;;;3.20;2.00;;;;;;;;;;468752;28;1006;-72
2023/11/13 00:30:56;;;;;;;3.37;2.23;;;;;;;;;;469058;28;1073;-72
2023/11/13 00:31:13;;;;;;;3.77;2.30;;;;;;;;;;469607;28;1019;-72
2023/11/13 00:31:28;;;;;;;4.40;2.40;;;;;;;;;;470487;28;1199;-71
2023/11/13 00:31:44;;;;;;;4.07;2.40;;;;;;;;;;468466;28;1101;-72
2023/11/13 00:31:59;;;;;;;3.40;2.27;;;;;;;;;;469105;28;1106;-71
2023/11/13 00:32:14;;;;;;;3.57;2.20;;;;;;;;;;470368;28;1123;-72
2023/11/13 00:32:30;;;;;;;4.00;2.15;;;;;;;;;;471266;28;1014;-72
2023/11/13 00:32:45;;;;;;;3.97;2.13;;;;;;;;;;472573;28;1955;-71
2023/11/13 00:33:00;;;;;;;3.42;2.03;;;;;;;;;;472499;28;1034;-72
2023/11/13 00:33:16;;;;;;;3.30;1.90;;;;;;;;;;470499;28;1114;-71
2023/11/13 00:33:31;;;;;;;2.93;2.00;;;;;;;;;;469814;28;1284;-72
2023/11/13 00:33:48;;;;;;;3.00;2.00;;;;;;;;;;470559;28;981;-71
2023/11/13 00:34:03;;;;;;;3.35;1.90;;;;;;;;;;471044;28;1008;-72
2023/11/13 00:34:19;;;;;;;3.22;1.85;;;;;;;;;;470457;28;1045;-71
2023/11/13 00:34:34;;;;;;;3.20;1.97;;;;;;;;;;470667;28;1034;-71
2023/11/13 00:34:49;;;;;;;4.03;2.20;;;;;;;;;;469250;28;1275;-72
2023/11/13 00:35:05;;;;;;;4.07;2.20;;;;;;;;;;467179;28;1172;-71
2023/11/13 00:35:21;;;;;;;3.85;2.10;;;;;;;;;;469232;28;1272;-72
2023/11/13 00:35:36;;;;;;;3.37;2.10;;;;;;;;;;468875;28;1250;-72
2023/11/13 00:35:51;;;;;;;3.28;1.90;;;;;;;;;;468722;28;929;-71
2023/11/13 00:36:07;;;;;;;3.80;1.90;;;;;;;;;;467991;28;895;-72
2023/11/13 00:36:23;;;;;;;3.78;1.95;;;;;;;;;;465991;28;1201;-71
2023/11/13 00:36:38;;;;;;;3.53;2.10;;;;;;;;;;467309;28;1196;-71
2023/11/13 00:36:53;;;;;;;3.50;2.20;;;;;;;;;;467794;28;1286;-72
2023/11/13 00:37:08;;;;;;;3.10;2.10;;;;;;;;;;468143;28;1202;-71
2023/11/13 00:37:24;;;;;;;3.07;2.10;;;;;;;;;;466662;28;1105;-72
2023/11/13 00:37:40;;;;;;;3.28;2.10;;;;;;;;;;465256;28;1253;-72
2023/11/13 00:37:57;;;;;;;2.93;2.10;;;;;;;;;;466661;28;1554;-72
2023/11/13 00:38:13;;;;;;;2.80;2.25;;;;;;;;;;467515;28;911;-71
2023/11/13 00:38:28;;;;;;;3.47;2.08;;;;;;;;;;469281;28;1197;-71
2023/11/13 00:38:44;;;;;;;4.10;1.97;;;;;;;;;;469209;28;1387;-72
2023/11/13 00:38:59;;;;;;;3.47;2.00;;;;;;;;;;469662;28;1206;-72
2023/11/13 00:39:14;;;;;;;2.97;2.03;;;;;;;;;;469858;28;1086;-72
2023/11/13 00:39:32;;;;;;;3.38;2.10;;;;;;;;;;466617;28;1263;-72
2023/11/13 00:39:48;;;;;;;3.85;2.00;;;;;;;;;;467537;28;1090;-71
2023/11/13 00:40:04;;;;;;;3.90;2.10;;;;;;;;;;468497;28;941;-72
2023/11/13 00:40:23;;;;;;;3.65;2.08;;;;;;;;;;469469;28;946;-71
2023/11/13 00:40:40;;;;;;;2.80;1.98;;;;;;;;;;466825;28;1182;-72
2023/11/13 00:40:55;;;;;;;2.63;1.90;;;;;;;;;;468186;28;1447;-72
2023/11/13 00:41:12;;;;;;;2.70;1.90;;;;;;;;;;470092;28;1085;-72
2023/11/13 00:41:31;;;;;;;2.50;1.80;;;;;;;;;;472294;28;1475;-71
2023/11/13 00:41:47;;;;;;;3.03;1.95;;;;;;;;;;472635;28;1000;-71
2023/11/13 00:42:02;;;;;;;3.20;2.00;;;;;;;;;;469907;28;1096;-72
2023/11/13 00:42:17;;;;;;;3.00;1.98;;;;;;;;;;470308;28;1349;-72
2023/11/13 00:42:33;;;;;;;3.30;1.90;;;;;;;;;;469047;28;1295;-72
2023/11/13 00:42:48;;;;;;;3.63;2.00;;;;;;;;;;469484;28;940;-71
2023/11/13 00:43:03;;;;;;;3.85;1.92;;;;;;;;;;469102;28;1150;-71
2023/11/13 00:43:19;;;;;;;3.40;1.90;;;;;;;;;;469371;28;1075;-72
2023/11/13 00:43:34;;;;;;;2.80;2.00;;;;;;;;;;469590;28;885;-71
2023/11/13 00:43:49;;;;;;;3.35;2.10;;;;;;;;;;468498;28;1056;-71
2023/11/13 00:44:06;;;;;;;3.57;2.03;;;;;;;;;;470532;28;1264;-72
2023/11/13 00:44:21;;;;;;;4.40;2.15;;;;;;;;;;472494;27;937;-71
2023/11/13 00:44:37;;;;;;;3.53;2.07;;;;;;;;;;472011;28;1176;-72
2023/11/13 00:44:52;;;;;;;2.55;1.98;;;;;;;;;;472559;28;910;-72
2023/11/13 00:45:08;;;;;;;2.80;2.10;;;;;;;;;;472612;28;1222;-71
2023/11/13 00:45:23;;;;;;;3.55;2.20;;;;;;;;;;470615;28;1071;-71
2023/11/13 00:45:39;;;;;;;4.43;2.30;;;;;;;;;;471109;28;1008;-71
2023/11/13 00:45:54;;;;;;;3.77;2.10;;;;;;;;;;469215;28;1094;-71
2023/11/13 00:46:09;;;;;;;2.80;1.80;;;;;;;;;;466730;28;1139;-71
2023/11/13 00:46:25;;;;;;;3.10;1.80;;;;;;;;;;466853;28;1096;-71
2023/11/13 00:46:40;;;;;;;3.50;1.90;;;;;;;;;;467301;28;1245;-72
2023/11/13 00:46:55;;;;;;;3.40;1.92;;;;;;;;;;466583;28;1068;-72
2023/11/13 00:47:11;;;;;;;3.70;2.00;;;;;;;;;;468209;28;1054;-71
2023/11/13 00:47:27;;;;;;;3.50;2.10;;;;;;;;;;469032;28;1124;-72
2023/11/13 00:47:42;;;;;;;3.35;2.10;;;;;;;;;;469352;28;1383;-71
2023/11/13 00:47:57;;;;;;;3.37;2.10;;;;;;;;;;470863;28;1300;-71
2023/11/13 00:48:13;;;;;;;3.27;2.00;;;;;;;;;;471234;28;1054;-71
2023/11/13 00:48:28;;;;;;;3.07;2.00;;;;;;;;;;470664;28;882;-72
2023/11/13 00:48:44;;;;;;;3.33;2.05;;;;;;;;;;470765;28;1251;-72
2023/11/13 00:48:59;;;;;;;2.97;1.88;;;;;;;;;;471470;28;1225;-71
2023/11/13 00:49:14;;;;;;;2.17;1.77;;;;;;;;;;471478;28;1131;-71
2023/11/13 00:49:30;;;;;;;2.40;1.87;;;;;;;;;;471352;28;915;-71
2023/11/13 00:49:45;;;;;;;3.80;2.00;;;;;;;;;;469729;28;1128;-71
2023/11/13 00:50:00;;;;;;;3.65;1.90;;;;;;;;;;468722;28;1172;-71
2023/11/13 00:50:16;;;;;;;2.50;1.87;;;;;;;;;;468475;28;1020;-71
2023/11/13 00:50:31;;;;;;;3.37;2.10;;;;;;;;;;469400;28;851;-71
2023/11/13 00:50:47;;;;;;;3.35;2.20;;;;;;;;;;468950;28;1074;-71
2023/11/13 00:51:02;;;;;;;2.65;2.28;;;;;;;;;;468990;28;1286;-71
2023/11/13 00:51:18;;;;;;;3.03;2.20;;;;;;;;;;466107;28;1284;-71
2023/11/13 00:51:33;;;;;;;3.13;2.13;;;;;;;;;;464805;28;1124;-71
2023/11/13 00:51:48;;;;;;;2.85;2.10;;;;;;;;;;466594;28;1156;-71
2023/11/13 00:52:04;;;;;;;3.07;2.20;;;;;;;;;;466940;28;1038;-71
2023/11/13 00:52:19;;;;;;;2.90;2.03;;;;;;;;;;469281;28;905;-71
2023/11/13 00:52:35;;;;;;;2.67;1.90;;;;;;;;;;469112;28;1131;-72
2023/11/13 00:52:50;;;;;;;2.90;1.90;;;;;;;;;;467695;28;2001;-71
2023/11/13 00:53:05;;;;;;;3.10;1.77;;;;;;;;;;467652;28;1155;-71
2023/11/13 00:53:20;;;;;;;3.20;1.83;;;;;;;;;;469100;28;1094;-71
2023/11/13 00:53:36;;;;;;;3.27;2.10;;;;;;;;;;469460;28;1078;-71
2023/11/13 00:53:52;;;;;;;2.97;2.00;;;;;;;;;;468846;28;929;-71
2023/11/13 00:54:07;;;;;;;2.42;1.85;;;;;;;;;;470665;28;1046;-71
2023/11/13 00:54:22;;;;;;;2.57;1.90;;;;;;;;;;470439;28;1108;-71
2023/11/13 00:54:38;;;;;;;2.83;1.97;;;;;;;;;;471239;28;905;-72
2023/11/13 00:54:53;;;;;;;3.55;2.30;;;;;;;;;;472967;28;957;-71
2023/11/13 00:55:09;;;;;;;3.53;2.20;;;;;;;;;;472629;28;1006;-71
2023/11/13 00:55:25;;;;;;;3.40;2.00;;;;;;;;;;470944;28;1116;-71
2023/11/13 00:55:40;;;;;;;3.60;2.10;;;;;;;;;;468762;28;1306;-71
2023/11/13 00:55:56;;;;;;;3.90;2.20;;;;;;;;;;468489;28;1019;-72
2023/11/13 00:56:11;;;;;;;3.88;2.10;;;;;;;;;;467102;28;1096;-72
2023/11/13 00:56:26;;;;;;;3.30;2.07;;;;;;;;;;465716;28;1066;-72
2023/11/13 00:56:42;;;;;;;3.07;1.97;;;;;;;;;;463579;28;1292;-72
2023/11/13 00:56:57;;;;;;;3.20;2.00;;;;;;;;;;463857;28;930;-72
2023/11/13 00:57:13;;;;;;;3.50;1.90;;;;;;;;;;463672;28;1261;-72
2023/11/13 00:57:28;;;;;;;2.78;1.80;;;;;;;;;;462859;28;1048;-72
2023/11/13 00:57:44;;;;;;;2.80;1.80;;;;;;;;;;462297;28;1178;-71
2023/11/13 00:57:59;;;;;;;2.75;1.77;;;;;;;;;;463245;28;1114;-71
2023/11/13 00:58:16;;;;;;;2.33;1.73;;;;;;;;;;465520;28;1153;-72
2023/11/13 00:58:34;;;;;;;2.30;1.70;;;;;;;;;;465124;28;958;-71
2023/11/13 00:58:49;;;;;;;2.20;1.70;;;;;;;;;;465611;28;1026;-71
2023/11/13 00:59:05;;;;;;;2.43;1.80;;;;;;;;;;465846;28;1044;-72
2023/11/13 00:59:20;;;;;;;2.35;1.73;;;;;;;;;;467385;28;1154;-72
2023/11/13 00:59:35;;;;;;;3.17;1.70;;;;;;;;;;469029;28;1072;-72
2023/11/13 00:59:51;;;;;;;3.23;1.53;;;;;;;;;;469342;28;902;-72
2023/11/13 01:00:09;;;;;;;3.10;1.50;;;;;;;;;;469243;28;1164;-71
2023/11/13 01:00:24;;;;;;;3.78;1.83;;;;;;;;;;467398;28;1069;-71
2023/11/13 01:00:40;;;;;;;3.30;2.20;;;;;;;;;;466658;28;1071;-71
2023/11/13 01:00:55;;;;;;;3.13;2.08;;;;;;;;;;466957;28;1008;-71
2023/11/13 01:01:13;;;;;;;3.00;2.00;;;;;;;;;;467255;28;1329;-71
2023/11/13 01:01:29;;;;;;;2.88;2.35;;;;;;;;;;469605;28;1015;-71
2023/11/13 01:01:44;;;;;;;2.95;2.58;;;;;;;;;;471106;28;1062;-72
2023/11/13 01:02:01;;;;;;;3.07;2.50;;;;;;;;;;470431;28;1039;-71
2023/11/13 01:02:17;;;;;;;3.15;2.22;;;;;;;;;;471582;28;1503;-71
2023/11/13 01:02:32;;;;;;;2.67;1.92;;;;;;;;;;471597;28;1215;-72
2023/11/13 01:02:47;;;;;;;2.87;1.90;;;;;;;;;;472611;28;1127;-72
2023/11/13 01:03:04;;;;;;;2.88;1.85;;;;;;;;;;470292;28;1308;-72
2023/11/13 01:03:19;;;;;;;3.30;1.80;;;;;;;;;;471350;28;1072;-71
2023/11/13 01:03:34;;;;;;;3.30;1.80;;;;;;;;;;469222;28;1334;-71
2023/11/13 01:03:50;;;;;;;2.92;1.90;;;;;;;;;;469528;28;930;-71
2023/11/13 01:04:06;;;;;;;2.97;1.80;;;;;;;;;;466072;28;1265;-72
2023/11/13 01:04:21;;;;;;;2.83;1.70;;;;;;;;;;467242;28;977;-71
2023/11/13 01:04:37;;;;;;;3.10;1.73;;;;;;;;;;466794;28;1134;-71
2023/11/13 01:04:52;;;;;;;3.07;1.90;;;;;;;;;;465505;28;1127;-71
2023/11/13 01:05:08;;;;;;;2.85;1.90;;;;;;;;;;467098;28;1047;-71
2023/11/13 01:05:23;;;;;;;2.80;1.90;;;;;;;;;;463474;28;1127;-71
2023/11/13 01:05:39;;;;;;;2.70;1.90;;;;;;;;;;465585;28;895;-72
2023/11/13 01:05:54;;;;;;;2.80;1.90;;;;;;;;;;467696;28;1219;-71
2023/11/13 01:06:15;;;;;;;3.00;2.00;;;;;;;;;;467336;28;1138;-72
2023/11/13 01:06:30;;;;;;;3.13;1.90;;;;;;;;;;467433;28;1086;-72
2023/11/13 01:06:48;;;;;;;3.10;1.80;;;;;;;;;;470582;28;882;-72
2023/11/13 01:07:03;;;;;;;2.75;1.73;;;;;;;;;;471223;28;960;-71
2023/11/13 01:07:19;;;;;;;2.53;1.87;;;;;;;;;;470587;28;1430;-72
2023/11/13 01:07:34;;;;;;;2.60;1.85;;;;;;;;;;468112;28;1339;-71
2023/11/13 01:07:49;;;;;;;3.57;1.70;;;;;;;;;;468925;28;1114;-71
2023/11/13 01:08:04;;;;;;;3.90;1.80;;;;;;;;;;469687;28;954;-71
2023/11/13 01:08:20;;;;;;;3.85;2.05;;;;;;;;;;468711;28;1378;-71
2023/11/13 01:08:36;;;;;;;3.57;1.90;;;;;;;;;;467257;28;1258;-72
2023/11/13 01:08:51;;;;;;;2.85;1.83;;;;;;;;;;465170;28;1082;-71
2023/11/13 01:09:07;;;;;;;2.43;1.83;;;;;;;;;;465346;28;899;-71
2023/11/13 01:09:22;;;;;;;2.60;1.80;;;;;;;;;;466815;28;1012;-72
2023/11/13 01:09:38;;;;;;;3.92;1.90;;;;;;;;;;468459;28;1166;-71
2023/11/13 01:09:53;;;;;;;3.20;1.80;;;;;;;;;;468418;28;1359;-71
2023/11/13 01:10:09;;;;;;;2.47;1.83;;;;;;;;;;469838;28;898;-71
2023/11/13 01:10:25;;;;;;;2.92;1.90;;;;;;;;;;470034;28;1667;-71
2023/11/13 01:10:40;;;;;;;2.83;1.73;;;;;;;;;;469139;28;1334;-71
2023/11/13 01:10:55;;;;;;;2.47;1.50;;;;;;;;;;465765;28;1149;-71
2023/11/13 01:11:12;;;;;;;2.78;1.60;;;;;;;;;;467079;28;1047;-71
2023/11/13 01:11:27;;;;;;;3.33;1.77;;;;;;;;;;466590;28;972;-72
2023/11/13 01:11:43;;;;;;;3.15;1.90;;;;;;;;;;467265;28;1097;-71
2023/11/13 01:11:58;;;;;;;2.97;1.87;;;;;;;;;;466842;28;863;-71
2023/11/13 01:12:17;;;;;;;2.70;1.80;;;;;;;;;;467597;28;1009;-71
2023/11/13 01:12:32;;;;;;;2.80;1.73;;;;;;;;;;469421;28;906;-72
2023/11/13 01:12:47;;;;;;;2.87;1.70;;;;;;;;;;470327;28;2025;-71
2023/11/13 01:13:03;;;;;;;2.72;1.85;;;;;;;;;;473280;28;1200;-71
2023/11/13 01:13:19;;;;;;;3.47;1.90;;;;;;;;;;471720;28;1114;-71
2023/11/13 01:13:36;;;;;;;3.22;1.70;;;;;;;;;;471758;28;940;-72
2023/11/13 01:13:52;;;;;;;2.65;1.77;;;;;;;;;;470464;28;945;-71
2023/11/13 01:14:09;;;;;;;2.53;1.90;;;;;;;;;;468080;28;1000;-72
2023/11/13 01:14:25;;;;;;;2.60;1.60;;;;;;;;;;472359;28;1687;-72
2023/11/13 01:14:40;;;;;;;2.60;1.50;;;;;;;;;;469341;28;910;-71
2023/11/13 01:14:56;;;;;;;2.63;1.60;;;;;;;;;;470124;28;957;-71
2023/11/13 01:15:12;;;;;;;3.03;1.77;;;;;;;;;;469752;28;1057;-72
2023/11/13 01:15:27;;;;;;;3.50;1.90;;;;;;;;;;470249;28;1053;-71
2023/11/13 01:15:43;;;;;;;2.80;1.70;;;;;;;;;;470682;28;1022;-72
2023/11/13 01:15:58;;;;;;;2.33;1.50;;;;;;;;;;471781;28;1227;-71
2023/11/13 01:16:14;;;;;;;2.90;1.60;;;;;;;;;;471692;28;1185;-72
2023/11/13 01:16:29;;;;;;;2.60;1.70;;;;;;;;;;470991;28;873;-71
2023/11/13 01:16:45;;;;;;;3.47;1.90;;;;;;;;;;469156;28;989;-72
2023/11/13 01:17:00;;;;;;;4.53;1.85;;;;;;;;;;469029;28;923;-72
2023/11/13 01:17:16;;;;;;;3.40;1.70;;;;;;;;;;468642;28;1197;-71
2023/11/13 01:17:31;;;;;;;2.10;1.50;;;;;;;;;;467034;28;1339;-71
2023/11/13 01:17:47;;;;;;;1.90;1.50;;;;;;;;;;466418;28;1157;-71
2023/11/13 01:18:02;;;;;;;2.83;1.70;;;;;;;;;;466270;28;1122;-72
2023/11/13 01:18:18;;;;;;;3.53;1.80;;;;;;;;;;468052;28;966;-72
2023/11/13 01:18:34;;;;;;;3.20;1.88;;;;;;;;;;467718;28;1128;-71
2023/11/13 01:18:53;;;;;;;2.97;1.80;;;;;;;;;;468235;28;875;-72
2023/11/13 01:19:08;;;;;;;2.65;1.60;;;;;;;;;;467685;28;1187;-71
2023/11/13 01:19:23;;;;;;;2.20;1.50;;;;;;;;;;465512;28;1216;-71
2023/11/13 01:19:39;;;;;;;1.57;1.30;;;;;;;;;;464240;28;1264;-71
2023/11/13 01:19:54;;;;;;;2.60;1.50;;;;;;;;;;464877;28;867;-74
2023/11/13 01:20:11;;;;;;;2.50;1.53;;;;;;;;;;465543;28;934;-72
2023/11/13 01:20:27;;;;;;;2.35;1.40;;;;;;;;;;467536;28;1052;-72
2023/11/13 01:20:42;;;;;;;3.38;1.73;;;;;;;;;;468638;28;1001;-72
2023/11/13 01:20:58;;;;;;;3.07;1.83;;;;;;;;;;467978;28;1046;-71
2023/11/13 01:21:13;;;;;;;2.80;1.70;;;;;;;;;;469513;28;1058;-71
2023/11/13 01:21:29;;;;;;;2.08;1.50;;;;;;;;;;471991;28;1145;-72
2023/11/13 01:21:44;;;;;;;1.90;1.50;;;;;;;;;;470621;28;1120;-71
2023/11/13 01:21:59;;;;;;;2.05;1.60;;;;;;;;;;471277;28;987;-71
2023/11/13 01:22:15;;;;;;;2.57;1.77;;;;;;;;;;469264;28;1334;-72
2023/11/13 01:22:30;;;;;;;2.87;1.77;;;;;;;;;;469385;28;1127;-71
2023/11/13 01:22:46;;;;;;;3.05;1.60;;;;;;;;;;469143;28;930;-71
2023/11/13 01:23:01;;;;;;;3.00;1.60;;;;;;;;;;468718;28;1089;-72
2023/11/13 01:23:16;;;;;;;3.00;1.70;;;;;;;;;;467631;28;1086;-72
2023/11/13 01:23:32;;;;;;;2.88;1.70;;;;;;;;;;466461;28;926;-72
2023/11/13 01:23:47;;;;;;;3.03;1.70;;;;;;;;;;468009;28;1048;-71
2023/11/13 01:24:03;;;;;;;2.83;1.70;;;;;;;;;;467225;28;1165;-71
2023/11/13 01:24:18;;;;;;;2.53;1.60;;;;;;;;;;467301;28;1033;-72
2023/11/13 01:24:34;;;;;;;2.83;1.70;;;;;;;;;;467030;28;1072;-71
2023/11/13 01:24:49;;;;;;;2.33;1.60;;;;;;;;;;467175;28;1021;-71
2023/11/13 01:25:05;;;;;;;2.43;1.70;;;;;;;;;;468647;28;1126;-72
2023/11/13 01:25:20;;;;;;;2.75;1.70;;;;;;;;;;468710;28;1079;-72
2023/11/13 01:25:35;;;;;;;2.73;1.70;;;;;;;;;;469078;28;1222;-71
2023/11/13 01:25:51;;;;;;;2.47;1.67;;;;;;;;;;469277;28;1082;-72
2023/11/13 01:26:06;;;;;;;2.65;1.63;;;;;;;;;;470810;28;917;-72
2023/11/13 01:26:22;;;;;;;3.28;1.70;;;;;;;;;;472435;28;1118;-72
2023/11/13 01:26:38;;;;;;;2.87;1.70;;;;;;;;;;469746;28;1349;-72
2023/11/13 01:26:53;;;;;;;3.07;1.70;;;;;;;;;;468980;28;1350;-72
2023/11/13 01:27:08;;;;;;;3.10;1.60;;;;;;;;;;466828;28;1051;-72
2023/11/13 01:27:24;;;;;;;2.20;1.50;;;;;;;;;;469854;28;1110;-72
2023/11/13 01:27:39;;;;;;;2.30;1.60;;;;;;;;;;467345;28;1057;-72
2023/11/13 01:27:54;;;;;;;2.10;1.60;;;;;;;;;;467321;28;930;-72
2023/11/13 01:28:10;;;;;;;2.23;1.60;;;;;;;;;;466781;28;1044;-72
2023/11/13 01:28:25;;;;;;;2.37;1.60;;;;;;;;;;467252;28;973;-72
2023/11/13 01:28:40;;;;;;;2.50;1.80;;;;;;;;;;469049;28;930;-72
2023/11/13 01:28:56;;;;;;;3.90;1.80;;;;;;;;;;470629;28;897;-71
2023/11/13 01:29:11;;;;;;;3.70;1.63;;;;;;;;;;472714;28;1215;-72
2023/11/13 01:29:26;;;;;;;2.20;1.60;;;;;;;;;;470818;28;1085;-72
2023/11/13 01:29:41;;;;;;;2.03;1.50;;;;;;;;;;471291;28;1090;-72
2023/11/13 01:29:57;;;;;;;2.60;1.60;;;;;;;;;;470904;28;1139;-72
2023/11/13 01:30:13;;;;;;;2.88;1.70;;;;;;;;;;470604;28;998;-72
2023/11/13 01:30:28;;;;;;;2.60;1.70;;;;;;;;;;470042;28;929;-72
2023/11/13 01:30:44;;;;;;;2.20;1.52;;;;;;;;;;468948;28;1078;-71
2023/11/13 01:30:59;;;;;;;1.90;1.40;;;;;;;;;;468698;28;1021;-72
2023/11/13 01:31:15;;;;;;;2.05;1.50;;;;;;;;;;469052;28;1076;-72
2023/11/13 01:31:30;;;;;;;2.92;1.58;;;;;;;;;;469333;28;1237;-72
2023/11/13 01:31:46;;;;;;;2.87;1.67;;;;;;;;;;468193;28;1449;-72
2023/11/13 01:32:01;;;;;;;2.80;1.70;;;;;;;;;;470109;28;966;-72
2023/11/13 01:32:16;;;;;;;2.50;1.70;;;;;;;;;;470300;28;1650;-71
2023/11/13 01:32:32;;;;;;;2.03;1.50;;;;;;;;;;468241;28;1084;-71
2023/11/13 01:32:47;;;;;;;2.57;1.60;;;;;;;;;;470356;28;1959;-72
2023/11/13 01:33:02;;;;;;;2.60;1.58;;;;;;;;;;470394;28;906;-72
2023/11/13 01:33:21;;;;;;;3.07;1.60;;;;;;;;;;471303;28;858;-72
2023/11/13 01:33:36;;;;;;;3.00;1.55;;;;;;;;;;472640;28;1078;-72
2023/11/13 01:33:52;;;;;;;3.03;1.50;;;;;;;;;;471964;28;1108;-71
2023/11/13 01:34:12;;;;;;;2.90;1.58;;;;;;;;;;472380;28;925;-71
2023/11/13 01:34:27;;;;;;;2.33;1.40;;;;;;;;;;471943;28;1151;-72
2023/11/13 01:34:43;;;;;;;2.47;1.47;;;;;;;;;;470729;28;1075;-72
2023/11/13 01:34:58;;;;;;;3.13;1.60;;;;;;;;;;471084;28;1223;-72
2023/11/13 01:35:19;;;;;;;2.58;1.60;;;;;;;;;;469344;28;1098;-71
2023/11/13 01:35:34;;;;;;;2.72;1.48;;;;;;;;;;471796;28;1040;-71
2023/11/13 01:35:49;;;;;;;2.70;1.50;;;;;;;;;;469957;28;1120;-71
2023/11/13 01:36:05;;;;;;;2.07;1.50;;;;;;;;;;468187;28;1235;-72
2023/11/13 01:36:20;;;;;;;2.45;1.50;;;;;;;;;;467889;28;866;-72
2023/11/13 01:36:36;;;;;;;2.83;1.50;;;;;;;;;;470117;28;974;-71
2023/11/13 01:36:51;;;;;;;2.53;1.50;;;;;;;;;;469365;28;1439;-72
2023/11/13 01:37:06;;;;;;;2.20;1.57;;;;;;;;;;470247;28;878;-71
2023/11/13 01:37:22;;;;;;;2.00;1.53;;;;;;;;;;470678;28;921;-72